createdAt,value
2023-04-07T00:02:37.729Z,26.42
2023-04-07T00:05:23.560Z,24.05
2023-04-07T00:08:09.249Z,19.20
2023-04-07T00:10:54.965Z,21.67
2023-04-07T00:13:40.707Z,19.63
2023-04-07T00:16:26.690Z,15.70
2023-04-07T00:19:12.656Z,15.35
2023-04-07T00:21:58.626Z,18.05
2023-04-07T00:24:44.743Z,18.38
2023-04-07T00:27:31.052Z,19.65
2023-04-07T00:30:17.921Z,18.65
2023-04-07T00:33:04.195Z,18.20
2023-04-07T00:35:57.973Z,17.73
2023-04-07T00:38:44.173Z,18.80
2023-04-07T00:41:29.821Z,18.95
2023-04-07T00:44:16.198Z,19.40
2023-04-07T00:47:02.710Z,19.27
2023-04-07T00:49:49.318Z,20.08
2023-04-07T00:52:36.172Z,18.92
2023-04-07T00:55:22.001Z,19.83
2023-04-07T00:58:08.071Z,20.35
2023-04-07T01:01:09.343Z,21.25
2023-04-07T01:04:02.459Z,19.25
2023-04-07T01:06:51.150Z,20.55
2023-04-07T01:09:51.256Z,20.13
2023-04-07T01:12:47.336Z,18.98
2023-04-07T01:15:35.089Z,17.90
2023-04-07T01:18:25.396Z,16.80
2023-04-07T01:21:14.472Z,17.08
2023-04-07T01:24:39.264Z,17.63
2023-04-07T01:27:33.161Z,17.15
2023-04-07T01:30:19.702Z,17.65
2023-04-07T01:33:06.528Z,17.85
2023-04-07T01:35:53.550Z,18.45
2023-04-07T01:38:39.838Z,16.88
2023-04-07T01:41:26.409Z,16.17
2023-04-07T01:44:12.303Z,16.30
2023-04-07T01:46:58.768Z,16.35
2023-04-07T01:49:45.555Z,19.27
2023-04-07T01:52:33.344Z,19.52
2023-04-07T01:55:19.366Z,20.42
2023-04-07T01:58:20.591Z,20.92
2023-04-07T02:01:06.796Z,19.63
2023-04-07T02:04:22.741Z,19.02
2023-04-07T02:07:20.375Z,18.10
2023-04-07T02:10:12.557Z,21.00
2023-04-07T02:12:58.912Z,22.95
2023-04-07T02:15:45.914Z,23.70
2023-04-07T02:18:32.508Z,24.20
2023-04-07T02:21:18.884Z,23.00
2023-04-07T02:24:08.374Z,22.17
2023-04-07T02:26:54.157Z,23.00
2023-04-07T02:29:40.986Z,18.15
2023-04-07T02:32:26.997Z,14.38
2023-04-07T02:35:12.978Z,14.20
2023-04-07T02:38:01.640Z,12.82
2023-04-07T02:40:47.651Z,13.57
2023-04-07T02:43:33.516Z,12.25
2023-04-07T02:46:19.357Z,13.98
2023-04-07T02:49:04.917Z,16.50
2023-04-07T02:51:50.880Z,15.98
2023-04-07T02:54:36.863Z,15.73
2023-04-07T02:57:23.031Z,16.25
2023-04-07T03:00:12.501Z,16.95
2023-04-07T03:03:19.875Z,17.65
2023-04-07T03:06:18.524Z,15.55
2023-04-07T03:09:16.611Z,15.35
2023-04-07T03:12:02.691Z,15.30
2023-04-07T03:14:52.829Z,14.40
2023-04-07T03:17:40.906Z,15.05
2023-04-07T03:20:27.341Z,16.98
2023-04-07T03:23:13.694Z,16.85
2023-04-07T03:25:59.443Z,15.32
2023-04-07T03:28:49.610Z,14.73
2023-04-07T03:31:37.788Z,14.40
2023-04-07T03:34:23.522Z,15.70
2023-04-07T03:37:09.318Z,15.75
2023-04-07T03:39:57.388Z,15.75
2023-04-07T03:42:46.826Z,16.63
2023-04-07T03:45:33.957Z,15.98
2023-04-07T03:48:20.551Z,15.85
2023-04-07T03:51:21.717Z,16.35
2023-04-07T03:54:11.995Z,17.50
2023-04-07T03:57:02.356Z,17.63
2023-04-07T03:59:51.298Z,17.98
2023-04-07T04:02:38.272Z,18.52
2023-04-07T04:05:25.509Z,17.85
2023-04-07T04:08:11.977Z,15.43
2023-04-07T04:11:00.058Z,16.60
2023-04-07T04:13:52.982Z,16.53
2023-04-07T04:16:39.175Z,15.75
2023-04-07T04:19:35.839Z,17.45
2023-04-07T04:22:29.191Z,17.00
2023-04-07T04:25:17.510Z,16.63
2023-04-07T04:28:07.432Z,17.52
2023-04-07T04:30:54.598Z,17.80
2023-04-07T04:33:40.723Z,19.27
2023-04-07T04:36:27.739Z,20.63
2023-04-07T04:39:18.239Z,17.38
2023-04-07T04:42:05.667Z,19.00
2023-04-07T04:44:55.418Z,18.50
2023-04-07T04:47:43.314Z,18.63
2023-04-07T04:50:30.825Z,18.60
2023-04-07T04:53:22.281Z,18.40
2023-04-07T04:56:13.667Z,18.75
2023-04-07T04:59:04.958Z,18.63
2023-04-07T05:02:11.643Z,19.85
2023-04-07T05:04:58.042Z,20.35
2023-04-07T05:07:47.467Z,19.50
2023-04-07T05:10:41.511Z,19.90
2023-04-07T05:13:32.102Z,25.05
2023-04-07T05:16:20.973Z,24.73
2023-04-07T05:19:07.278Z,21.77
2023-04-07T05:21:53.810Z,21.02
2023-04-07T05:24:41.677Z,24.45
2023-04-07T05:27:27.451Z,26.60
2023-04-07T05:30:17.744Z,24.25
2023-04-07T05:33:03.891Z,31.73
2023-04-07T05:36:00.639Z,26.52
2023-04-07T05:38:46.534Z,25.80
2023-04-07T05:41:36.587Z,26.58
2023-04-07T05:44:23.260Z,31.58
2023-04-07T05:47:11.524Z,35.42
2023-04-07T05:49:58.711Z,32.88
2023-04-07T05:52:45.285Z,32.25
2023-04-07T05:55:45.987Z,29.10
2023-04-07T05:58:40.630Z,33.88
2023-04-07T06:01:29.282Z,23.55
2023-04-07T06:04:15.419Z,40.72
2023-04-07T06:07:02.495Z,27.38
2023-04-07T06:09:48.212Z,32.13
2023-04-07T06:12:34.099Z,30.75
2023-04-07T06:15:19.780Z,41.50
2023-04-07T06:18:05.727Z,30.08
2023-04-07T06:20:52.091Z,30.60
2023-04-07T06:23:37.712Z,29.83
2023-04-07T06:26:26.336Z,47.33
2023-04-07T06:29:15.200Z,32.00
2023-04-07T06:32:02.566Z,27.73
2023-04-07T06:34:48.665Z,27.63
2023-04-07T06:37:34.354Z,26.42
2023-04-07T06:40:20.012Z,27.83
2023-04-07T06:43:06.338Z,26.48
2023-04-07T06:46:01.781Z,29.40
2023-04-07T06:48:47.647Z,29.23
2023-04-07T06:51:33.496Z,40.00
2023-04-07T06:54:19.116Z,42.13
2023-04-07T06:57:05.221Z,39.85
2023-04-07T06:59:51.277Z,39.63
2023-04-07T07:02:37.414Z,35.08
2023-04-07T07:05:23.685Z,33.38
2023-04-07T07:08:09.570Z,30.10
2023-04-07T07:11:27.422Z,31.73
2023-04-07T07:14:13.395Z,30.35
2023-04-07T07:16:59.419Z,28.25
2023-04-07T07:19:48.590Z,25.73
2023-04-07T07:22:34.182Z,26.52
2023-04-07T07:25:20.119Z,25.92
2023-04-07T07:29:18.122Z,23.15
2023-04-07T07:32:04.262Z,15.38
2023-04-07T07:34:50.108Z,13.30
2023-04-07T07:37:39.937Z,23.00
2023-04-07T07:40:29.703Z,44.33
2023-04-07T07:43:15.451Z,39.65
2023-04-07T07:46:01.265Z,12.27
2023-04-07T07:48:47.273Z,8.90
2023-04-07T07:51:33.022Z,9.75
2023-04-07T07:54:22.856Z,9.38
2023-04-07T07:57:09.035Z,9.43
2023-04-07T07:59:54.923Z,7.25
2023-04-07T08:02:40.800Z,6.32
2023-04-07T08:05:26.914Z,6.47
2023-04-07T08:08:12.967Z,8.63
2023-04-07T08:10:59.051Z,7.25
2023-04-07T08:13:46.752Z,7.63
2023-04-07T08:16:33.450Z,7.72
2023-04-07T08:19:19.261Z,6.22
2023-04-07T08:22:05.062Z,6.60
2023-04-07T08:24:50.999Z,6.90
2023-04-07T08:27:37.046Z,13.63
2023-04-07T08:30:22.788Z,9.02
2023-04-07T08:33:08.741Z,5.93
2023-04-07T08:35:54.450Z,11.73
2023-04-07T08:38:40.603Z,19.63
2023-04-07T08:41:42.422Z,40.78
2023-04-07T08:44:37.214Z,34.15
2023-04-07T08:47:23.850Z,8.35
2023-04-07T08:50:11.487Z,7.68
2023-04-07T08:52:57.710Z,6.78
2023-04-07T08:55:43.211Z,6.07
2023-04-07T08:58:46.625Z,7.93
2023-04-07T09:01:32.580Z,7.05
2023-04-07T09:04:18.584Z,7.32
2023-04-07T09:07:04.486Z,7.50
2023-04-07T09:09:50.807Z,6.07
2023-04-07T09:12:39.120Z,6.25
2023-04-07T09:15:26.101Z,6.43
2023-04-07T09:18:11.990Z,7.72
2023-04-07T09:21:46.892Z,9.77
2023-04-07T09:24:32.644Z,6.07
2023-04-07T09:27:23.179Z,7.95
2023-04-07T09:30:17.477Z,8.27
2023-04-07T09:33:03.501Z,6.88
2023-04-07T09:35:56.937Z,9.40
2023-04-07T09:39:08.528Z,6.35
2023-04-07T09:42:07.927Z,6.93
2023-04-07T09:44:59.831Z,6.28
2023-04-07T09:48:20.940Z,13.13
2023-04-07T09:51:12.774Z,15.98
2023-04-07T09:53:58.593Z,7.10
2023-04-07T09:56:44.941Z,6.90
2023-04-07T09:59:32.356Z,5.75
2023-04-07T10:02:18.376Z,4.47
2023-04-07T10:05:04.896Z,6.10
2023-04-07T10:07:51.546Z,4.75
2023-04-07T10:10:42.944Z,4.25
2023-04-07T10:13:32.969Z,6.15
2023-04-07T10:16:19.314Z,4.90
2023-04-07T10:19:06.428Z,4.72
2023-04-07T10:21:53.754Z,5.57
2023-04-07T10:29:15.219Z,6.65
2023-04-07T10:32:02.515Z,5.55
2023-04-07T10:34:51.234Z,5.53
2023-04-07T10:37:37.515Z,6.28
2023-04-07T10:40:30.239Z,6.13
2023-04-07T10:43:40.905Z,4.90
2023-04-07T10:46:49.606Z,5.13
2023-04-07T10:49:36.047Z,5.88
2023-04-07T10:52:23.406Z,5.53
2023-04-07T10:55:29.027Z,5.10
2023-04-07T10:58:19.265Z,6.38
2023-04-07T11:01:08.575Z,5.38
2023-04-07T11:03:59.651Z,7.18
2023-04-07T11:06:48.503Z,6.63
2023-04-07T11:09:34.540Z,6.13
2023-04-07T11:12:24.175Z,5.80
2023-04-07T11:15:22.247Z,4.97
2023-04-07T11:18:18.592Z,9.63
2023-04-07T11:21:06.414Z,7.13
2023-04-07T11:23:52.385Z,6.07
2023-04-07T11:26:40.231Z,8.55
2023-04-07T11:29:30.759Z,5.25
2023-04-07T11:32:16.841Z,9.38
2023-04-07T11:35:07.029Z,7.20
2023-04-07T11:37:59.841Z,7.70
2023-04-07T11:40:47.098Z,6.20
2023-04-07T11:43:34.195Z,12.10
2023-04-07T11:46:20.052Z,7.60
2023-04-07T11:49:13.879Z,7.57
2023-04-07T11:54:55.544Z,5.78
2023-04-07T11:57:41.730Z,5.95
2023-04-07T12:00:28.216Z,5.85
2023-04-07T12:03:14.682Z,5.88
2023-04-07T12:06:02.432Z,6.50
2023-04-07T12:08:48.515Z,5.03
2023-04-07T12:11:36.027Z,4.75
2023-04-07T12:14:22.328Z,5.72
2023-04-07T12:17:21.232Z,5.10
2023-04-07T12:20:07.913Z,5.15
2023-04-07T12:22:54.032Z,7.88
2023-04-07T12:25:40.006Z,5.05
2023-04-07T12:28:25.629Z,4.72
2023-04-07T12:31:11.466Z,5.45
2023-04-07T12:33:57.046Z,11.00
2023-04-07T12:36:43.803Z,10.30
2023-04-07T12:39:29.714Z,7.15
2023-04-07T12:42:15.548Z,11.60
2023-04-07T12:45:01.458Z,5.25
2023-04-07T12:47:47.551Z,5.57
2023-04-07T12:50:36.449Z,5.57
2023-04-07T12:53:23.681Z,6.68
2023-04-07T12:56:09.515Z,6.65
2023-04-07T12:58:55.234Z,9.50
2023-04-07T13:01:41.260Z,6.30
2023-04-07T13:04:30.437Z,6.35
2023-04-07T13:07:16.365Z,7.13
2023-04-07T13:10:02.972Z,6.20
2023-04-07T13:12:49.007Z,6.03
2023-04-07T13:15:34.812Z,5.90
2023-04-07T13:18:20.511Z,6.95
2023-04-07T13:21:38.203Z,7.32
2023-04-07T13:24:12.242Z,7.07
2023-04-07T13:26:59.596Z,6.72
2023-04-07T13:29:45.851Z,5.85
2023-04-07T13:32:31.762Z,6.05
2023-04-07T13:35:18.002Z,6.18
2023-04-07T13:38:04.085Z,5.10
2023-04-07T13:40:49.832Z,6.45
2023-04-07T13:43:35.794Z,6.32
2023-04-07T13:46:28.628Z,6.72
2023-04-07T13:49:15.184Z,5.53
2023-04-07T13:52:00.849Z,5.25
2023-04-07T13:54:46.480Z,6.40
2023-04-07T13:57:32.303Z,7.00
2023-04-07T14:00:18.618Z,7.88
2023-04-07T14:03:04.697Z,5.70
2023-04-07T14:05:50.800Z,8.00
2023-04-07T14:08:36.689Z,7.28
2023-04-07T14:11:22.721Z,6.65
2023-04-07T14:14:08.740Z,10.27
2023-04-07T14:16:54.925Z,6.05
2023-04-07T14:19:40.786Z,6.32
2023-04-07T14:22:26.673Z,5.70
2023-04-07T14:25:12.421Z,6.25
2023-04-07T14:27:58.274Z,6.35
2023-04-07T14:30:44.387Z,5.60
2023-04-07T14:33:30.647Z,5.18
2023-04-07T14:36:19.313Z,6.13
2023-04-07T14:39:05.486Z,5.47
2023-04-07T14:41:52.759Z,7.10
2023-04-07T14:44:45.952Z,5.53
2023-04-07T14:47:31.708Z,6.32
2023-04-07T14:50:17.585Z,5.68
2023-04-07T14:53:03.792Z,7.05
2023-04-07T14:55:49.935Z,12.95
2023-04-07T14:58:37.624Z,5.93
2023-04-07T15:01:23.429Z,6.38
2023-04-07T15:04:09.293Z,6.05
2023-04-07T15:06:56.226Z,7.65
2023-04-07T15:09:41.958Z,5.80
2023-04-07T15:12:29.841Z,6.38
2023-04-07T15:15:16.689Z,6.88
2023-04-07T15:18:04.108Z,6.00
2023-04-07T15:20:50.279Z,5.60
2023-04-07T15:23:37.888Z,5.20
2023-04-07T15:26:23.774Z,4.75
2023-04-07T15:29:09.434Z,5.15
2023-04-07T15:31:55.638Z,5.05
2023-04-07T15:34:41.589Z,4.80
2023-04-07T15:37:27.480Z,7.10
2023-04-07T15:40:14.479Z,5.75
2023-04-07T15:43:00.954Z,6.90
2023-04-07T15:45:47.923Z,6.85
2023-04-07T15:48:33.689Z,6.18
2023-04-07T15:51:19.462Z,6.80
2023-04-07T15:54:05.402Z,4.70
2023-04-07T15:56:51.937Z,5.38
2023-04-07T15:59:37.573Z,5.82
2023-04-07T16:02:24.716Z,7.43
2023-04-07T16:05:10.648Z,8.73
2023-04-07T16:07:56.651Z,8.65
2023-04-07T16:10:42.697Z,6.43
2023-04-07T16:13:28.466Z,5.82
2023-04-07T16:16:14.270Z,6.13
2023-04-07T16:19:00.109Z,5.63
2023-04-07T16:21:46.065Z,5.78
2023-04-07T16:24:31.944Z,12.40
2023-04-07T16:27:17.544Z,8.57
2023-04-07T16:30:06.978Z,7.07
2023-04-07T16:32:52.829Z,6.32
2023-04-07T16:35:39.008Z,6.88
2023-04-07T16:38:24.849Z,7.05
2023-04-07T16:41:11.060Z,6.47
2023-04-07T16:43:57.168Z,7.85
2023-04-07T16:46:42.767Z,7.95
2023-04-07T16:49:28.505Z,8.45
2023-04-07T16:52:14.295Z,9.43
2023-04-07T16:55:00.778Z,9.35
2023-04-07T16:57:46.678Z,8.00
2023-04-07T17:00:32.602Z,7.38
2023-04-07T17:03:18.473Z,7.82
2023-04-07T17:06:07.449Z,7.38
2023-04-07T17:08:53.395Z,7.15
2023-04-07T17:11:41.184Z,7.13
2023-04-07T17:14:26.867Z,6.50
2023-04-07T17:17:13.076Z,6.75
2023-04-07T17:20:00.579Z,7.18
2023-04-07T17:22:49.146Z,8.50
2023-04-07T17:25:35.508Z,8.80
2023-04-07T17:28:21.945Z,7.47
2023-04-07T17:31:07.848Z,7.65
2023-04-07T17:33:53.881Z,9.10
2023-04-07T17:36:40.973Z,7.28
2023-04-07T17:39:26.908Z,7.78
2023-04-07T17:42:12.723Z,8.02
2023-04-07T17:45:04.961Z,6.68
2023-04-07T17:47:53.365Z,6.82
2023-04-07T17:50:42.507Z,7.85
2023-04-07T17:53:29.751Z,7.18
2023-04-07T17:56:15.763Z,7.47
2023-04-07T17:59:01.591Z,7.00
2023-04-07T18:01:47.531Z,8.40
2023-04-07T18:04:33.882Z,8.73
2023-04-07T18:07:20.995Z,9.60
2023-04-07T18:10:07.317Z,7.80
2023-04-07T18:12:53.070Z,7.53
2023-04-07T18:15:38.735Z,7.07
2023-04-07T18:18:24.719Z,9.15
2023-04-07T18:21:10.857Z,10.20
2023-04-07T18:23:56.507Z,12.77
2023-04-07T18:26:44.513Z,14.40
2023-04-07T18:29:38.638Z,10.38
2023-04-07T18:32:24.777Z,8.43
2023-04-07T18:35:10.450Z,13.38
2023-04-07T18:37:57.191Z,12.20
2023-04-07T18:40:44.077Z,12.05
2023-04-07T18:43:38.438Z,9.02
2023-04-07T18:46:24.628Z,9.13
2023-04-07T18:49:10.511Z,12.00
2023-04-07T18:51:56.293Z,14.82
2023-04-07T18:54:41.981Z,16.73
2023-04-07T18:57:28.228Z,19.15
2023-04-07T19:00:14.033Z,17.60
2023-04-07T19:02:59.938Z,18.67
2023-04-07T19:05:47.779Z,17.58
2023-04-07T19:08:33.969Z,16.48
2023-04-07T19:11:19.700Z,16.25
2023-04-07T19:14:06.044Z,16.88
2023-04-07T19:16:52.163Z,18.90
2023-04-07T19:19:37.755Z,19.70
2023-04-07T19:22:23.530Z,21.73
2023-04-07T19:25:09.399Z,24.42
2023-04-07T19:27:55.366Z,25.48
2023-04-07T19:30:41.080Z,22.85
2023-04-07T19:33:26.921Z,23.23
2023-04-07T19:36:12.981Z,21.35
2023-04-07T19:38:58.901Z,22.73
2023-04-07T19:41:44.807Z,24.95
2023-04-07T19:44:31.983Z,28.77
2023-04-07T19:47:17.598Z,30.58
2023-04-07T19:50:04.416Z,27.50
2023-04-07T19:52:53.326Z,31.90
2023-04-07T19:55:46.164Z,29.80
2023-04-07T19:58:32.916Z,26.95
2023-04-07T20:01:19.145Z,27.20
2023-04-07T20:04:05.418Z,24.33
2023-04-07T20:06:51.270Z,26.70
2023-04-07T20:09:37.545Z,25.38
2023-04-07T20:12:24.308Z,27.45
2023-04-07T20:15:11.201Z,24.33
2023-04-07T20:17:56.977Z,23.63
2023-04-07T20:20:42.896Z,24.25
2023-04-07T20:23:28.816Z,24.67
2023-04-07T20:26:14.963Z,23.05
2023-04-07T20:29:00.895Z,22.40
2023-04-07T20:31:46.969Z,22.23
2023-04-07T20:34:32.985Z,20.92
2023-04-07T20:37:19.704Z,22.73
2023-04-07T20:40:06.437Z,20.52
2023-04-07T20:42:52.078Z,22.27
2023-04-07T20:45:38.374Z,18.20
2023-04-07T20:48:24.435Z,17.08
2023-04-07T20:51:14.329Z,17.23
2023-04-07T20:54:00.010Z,15.52
2023-04-07T20:56:45.721Z,16.42
2023-04-07T20:59:32.720Z,16.52
2023-04-07T21:02:18.827Z,17.02
2023-04-07T21:05:05.173Z,18.92
2023-04-07T21:07:50.830Z,18.00
2023-04-07T21:10:36.755Z,18.13
2023-04-07T21:13:38.118Z,17.40
2023-04-07T21:16:23.967Z,18.42
2023-04-07T21:19:09.689Z,18.42
2023-04-07T21:21:55.724Z,17.88
2023-04-07T21:24:41.752Z,17.67
2023-04-07T21:27:29.457Z,17.50
2023-04-07T21:30:16.676Z,18.02
2023-04-07T21:33:02.572Z,20.27
2023-04-07T21:35:49.524Z,18.33
2023-04-07T21:38:35.825Z,20.65
2023-04-07T21:41:22.034Z,19.90
2023-04-07T21:44:10.296Z,21.98
2023-04-07T21:47:01.426Z,22.50
2023-04-07T21:50:11.366Z,20.33
2023-04-07T21:52:57.170Z,21.10
2023-04-07T21:55:43.196Z,20.77
2023-04-07T21:58:29.146Z,19.85
2023-04-07T22:01:15.039Z,19.63
2023-04-07T22:04:00.603Z,20.08
2023-04-07T22:06:51.570Z,19.45
2023-04-07T22:09:37.225Z,21.27
2023-04-07T22:12:22.850Z,21.23
2023-04-07T22:15:09.427Z,23.20
2023-04-07T22:17:56.527Z,22.02
2023-04-07T22:20:42.327Z,24.83
2023-04-07T22:23:41.589Z,23.10
2023-04-07T22:27:45.575Z,24.15
2023-04-07T22:30:37.454Z,29.30
2023-04-07T22:33:23.210Z,30.00
2023-04-07T22:36:09.182Z,26.63
2023-04-07T22:38:54.964Z,22.50
2023-04-07T22:41:41.099Z,20.83
2023-04-07T22:44:32.123Z,19.20
2023-04-07T22:47:18.290Z,24.92
2023-04-07T22:50:14.450Z,29.58
2023-04-07T22:53:00.592Z,24.48
2023-04-07T22:55:47.244Z,23.50
2023-04-07T22:58:33.335Z,20.23
2023-04-07T23:01:19.182Z,19.35
2023-04-07T23:04:06.430Z,18.88
2023-04-07T23:06:53.209Z,19.90
2023-04-07T23:09:38.886Z,19.88
2023-04-07T23:12:24.678Z,19.35
2023-04-07T23:15:10.888Z,19.42
2023-04-07T23:17:56.860Z,18.63
2023-04-07T23:20:50.163Z,19.83
2023-04-07T23:23:39.134Z,21.70
2023-04-07T23:26:34.363Z,21.27
2023-04-07T23:29:21.796Z,21.80
2023-04-07T23:32:08.139Z,19.60
2023-04-07T23:34:54.342Z,19.95
2023-04-07T23:37:42.358Z,16.95
2023-04-07T23:40:28.082Z,15.88
2023-04-07T23:43:13.788Z,17.50
2023-04-07T23:46:00.175Z,22.67
2023-04-07T23:48:45.976Z,18.60
2023-04-07T23:51:32.280Z,16.02
2023-04-07T23:54:18.408Z,15.88
2023-04-07T23:57:04.240Z,15.25
2023-04-07T23:59:49.758Z,16.50
